Gamaliel, Arkansas
Current Conditions -  °F | °C
As of 8:53 AM on Thursday 30 Oct 2014 (Local Time) from KBPK Reporting Station
Clear Clear  
Wind Chill: 45°   Ceiling: Unl
Heat Index: 47°   Visibility: 10mi
Dew Point: 41°   Wind: 5mph
Humidity: 80%   Direction: 140°SE
Pressure: 30.14"   Gusts: NA
Location:  36.46°N, 92.23°W
Report Text: KBPK 301353Z AUTO 14004KT 10SM CLR 08/05 A3014 RMK AO2 SLP204 T00830050
Loading
Personal Weather Stations






























Interactive Weather Map
Tropical Storm Tracking
New forecast layout! Learn more

10-Day Weather Forecast

Advertisements
Track Severe Weather on mobile